createdAt,value
2022-12-23T00:00:34.879Z,3.28
2022-12-23T00:05:47.464Z,3.38
2022-12-23T00:21:27.522Z,4.45
2022-12-23T00:26:34.612Z,4.80
2022-12-23T00:31:41.022Z,3.58
2022-12-23T00:36:45.921Z,3.42
2022-12-23T00:42:16.554Z,3.90
2022-12-23T00:52:48.551Z,3.50
2022-12-23T00:58:00.097Z,3.30
2022-12-23T01:03:22.881Z,3.63
2022-12-23T01:08:31.476Z,3.33
2022-12-23T01:18:25.046Z,3.38
2022-12-23T01:23:26.910Z,3.65
2022-12-23T01:28:31.220Z,3.67
2022-12-23T01:33:34.069Z,3.38
2022-12-23T01:38:36.005Z,3.95
2022-12-23T01:43:52.145Z,3.30
2022-12-23T01:48:57.586Z,3.00
2022-12-23T01:54:03.807Z,2.80
2022-12-23T01:59:10.184Z,2.53
2022-12-23T02:05:13.440Z,3.20
2022-12-23T02:16:21.244Z,2.70
2022-12-23T02:21:54.914Z,3.30
2022-12-23T02:27:13.777Z,2.90
2022-12-23T02:32:39.856Z,2.80
2022-12-23T02:38:11.601Z,2.95
2022-12-23T02:43:31.126Z,3.00
2022-12-23T02:48:51.546Z,2.63
2022-12-23T02:53:59.277Z,2.63
2022-12-23T02:59:11.496Z,2.58
2022-12-23T03:04:17.034Z,2.22
2022-12-23T03:09:58.498Z,2.40
2022-12-23T03:15:43.035Z,2.40
2022-12-23T03:20:57.454Z,2.50
2022-12-23T03:26:18.304Z,2.40
2022-12-23T03:31:32.340Z,2.33
2022-12-23T03:36:53.975Z,2.40
2022-12-23T03:42:16.997Z,2.20
2022-12-23T03:47:38.475Z,2.30
2022-12-23T03:53:02.304Z,2.60
2022-12-23T04:03:36.246Z,2.10
2022-12-23T04:08:43.619Z,2.33
2022-12-23T04:18:29.291Z,2.78
2022-12-23T04:23:32.004Z,2.90
2022-12-23T04:28:34.889Z,2.35
2022-12-23T04:33:37.978Z,2.67
2022-12-23T04:43:45.437Z,2.55
2022-12-23T04:48:55.192Z,2.95
2022-12-23T04:53:57.164Z,2.63
2022-12-23T04:59:01.935Z,2.42
2022-12-23T05:04:15.457Z,2.10
2022-12-23T05:09:17.489Z,2.85
2022-12-23T05:14:25.451Z,2.90
2022-12-23T05:19:33.711Z,2.72
2022-12-23T05:24:44.493Z,2.78
2022-12-23T05:29:51.988Z,3.17
2022-12-23T05:34:59.085Z,2.65
2022-12-23T05:40:03.784Z,2.70
2022-12-23T05:45:12.753Z,2.60
2022-12-23T05:50:24.962Z,2.85
2022-12-23T05:55:33.164Z,2.58
2022-12-23T06:00:39.516Z,2.97
2022-12-23T06:05:45.724Z,3.30
2022-12-23T06:18:31.861Z,2.95
2022-12-23T06:23:33.901Z,2.70
2022-12-23T06:28:35.759Z,2.97
2022-12-23T06:33:37.665Z,3.15
2022-12-23T06:38:39.635Z,2.47
2022-12-23T06:43:41.866Z,3.40
2022-12-23T06:48:45.782Z,3.75
2022-12-23T06:53:53.909Z,2.58
2022-12-23T06:58:55.827Z,2.72
2022-12-23T07:03:57.685Z,3.53
2022-12-23T07:08:59.526Z,3.10
2022-12-23T07:14:01.477Z,3.45
2022-12-23T07:19:03.396Z,2.75
2022-12-23T07:24:06.068Z,3.28
2022-12-23T07:29:07.899Z,2.78
2022-12-23T07:34:10.110Z,2.78
2022-12-23T07:44:14.119Z,2.27
2022-12-23T07:54:17.792Z,2.50
2022-12-23T07:59:19.690Z,3.35
2022-12-23T08:04:21.838Z,3.85
2022-12-23T08:14:25.839Z,4.23
2022-12-23T08:19:29.128Z,3.95
2022-12-23T08:24:35.601Z,4.53
2022-12-23T08:29:41.712Z,3.65
2022-12-23T08:34:46.217Z,3.63
2022-12-23T08:39:48.959Z,4.15
2022-12-23T08:44:50.807Z,4.63
2022-12-23T08:55:11.525Z,6.00
2022-12-23T09:00:14.440Z,5.05
2022-12-23T09:05:17.629Z,4.65
2022-12-23T09:18:40.356Z,4.55
2022-12-23T09:23:56.848Z,3.78
2022-12-23T09:29:05.072Z,3.80
2022-12-23T09:34:13.842Z,3.95
2022-12-23T09:39:18.583Z,3.45
2022-12-23T09:44:47.047Z,3.55
2022-12-23T09:49:59.272Z,2.83
2022-12-23T09:55:18.554Z,3.10
2022-12-23T10:00:26.248Z,3.03
2022-12-23T10:06:00.378Z,2.83
2022-12-23T10:16:38.646Z,2.58
2022-12-23T10:21:49.984Z,2.70
2022-12-23T10:27:24.417Z,3.05
2022-12-23T10:32:53.125Z,2.22
2022-12-23T10:38:13.449Z,2.88
2022-12-23T10:43:30.450Z,2.47
2022-12-23T10:48:40.637Z,2.08
2022-12-23T10:54:23.006Z,2.13
2022-12-23T10:59:28.484Z,4.10
2022-12-23T11:04:40.518Z,2.38
2022-12-23T11:09:52.256Z,2.10
2022-12-23T11:14:59.481Z,2.30
2022-12-23T11:25:46.740Z,1.92
2022-12-23T11:31:36.765Z,2.90
2022-12-23T11:36:42.819Z,2.22
2022-12-23T11:42:04.463Z,2.17
2022-12-23T11:47:27.805Z,2.08
2022-12-23T11:52:35.924Z,1.95
2022-12-23T11:57:50.791Z,1.98
2022-12-23T12:08:30.295Z,2.00
2022-12-23T12:18:28.551Z,1.67
2022-12-23T12:23:44.000Z,2.50
2022-12-23T12:28:50.820Z,2.08
2022-12-23T12:34:28.640Z,1.90
2022-12-23T12:39:51.489Z,1.90
2022-12-23T12:45:10.958Z,1.92
2022-12-23T12:50:18.418Z,1.75
2022-12-23T12:55:29.825Z,1.58
2022-12-23T13:00:48.336Z,1.67
2022-12-23T13:06:00.424Z,1.90
2022-12-23T13:11:12.990Z,2.00
2022-12-23T13:16:28.573Z,1.77
2022-12-23T13:21:47.565Z,2.15
2022-12-23T13:27:19.434Z,2.22
2022-12-23T13:32:59.640Z,2.28
2022-12-23T13:38:35.713Z,1.83
2022-12-23T13:43:49.364Z,2.20
2022-12-23T13:49:17.739Z,2.30
2022-12-23T13:54:39.149Z,5.90
2022-12-23T14:05:00.214Z,2.97
2022-12-23T14:18:47.926Z,2.33
2022-12-23T14:23:59.584Z,2.00
2022-12-23T14:29:48.013Z,2.10
2022-12-23T14:35:16.660Z,2.00
2022-12-23T14:40:48.035Z,1.60
2022-12-23T14:51:41.317Z,1.67
2022-12-23T14:57:00.932Z,1.38
2022-12-23T15:02:39.006Z,1.38
2022-12-23T15:07:47.657Z,1.60
2022-12-23T15:12:58.300Z,2.00
2022-12-23T15:18:12.020Z,1.75
2022-12-23T15:25:39.602Z,2.00
2022-12-23T15:30:49.522Z,1.90
2022-12-23T15:35:52.266Z,1.70
2022-12-23T15:41:06.586Z,1.88
2022-12-23T15:46:16.900Z,1.83
2022-12-23T15:56:59.165Z,1.33
2022-12-23T16:08:13.992Z,1.30
2022-12-23T16:18:32.872Z,1.40
2022-12-23T16:23:39.292Z,1.27
2022-12-23T16:28:47.979Z,1.50
2022-12-23T16:34:00.179Z,1.10
2022-12-23T16:39:09.741Z,1.48
2022-12-23T16:44:14.339Z,1.30
2022-12-23T16:49:33.845Z,1.20
2022-12-23T16:54:43.061Z,1.50
2022-12-23T16:59:47.789Z,1.23
2022-12-23T17:04:53.324Z,1.50
2022-12-23T17:09:59.251Z,1.65
2022-12-23T17:15:04.791Z,1.30
2022-12-23T17:25:22.911Z,1.60
2022-12-23T17:30:32.110Z,1.60
2022-12-23T17:35:40.937Z,1.52
2022-12-23T17:40:45.482Z,1.55
2022-12-23T17:45:52.388Z,1.48
2022-12-23T17:51:00.673Z,1.58
2022-12-23T17:56:13.694Z,1.38
2022-12-23T18:01:35.325Z,1.80
2022-12-23T18:06:42.969Z,1.73
2022-12-23T18:11:50.316Z,1.80
2022-12-23T18:16:58.585Z,1.70
2022-12-23T18:22:02.523Z,1.50
2022-12-23T18:27:15.996Z,2.10
2022-12-23T18:32:28.804Z,1.90
2022-12-23T18:37:31.657Z,2.25
2022-12-23T18:42:35.460Z,2.05
2022-12-23T18:47:38.312Z,2.10
2022-12-23T18:52:43.023Z,1.88
2022-12-23T18:57:45.199Z,2.13
2022-12-23T19:02:50.588Z,2.15
2022-12-23T19:07:57.836Z,2.13
2022-12-23T19:13:00.781Z,2.33
2022-12-23T19:18:02.856Z,2.20
2022-12-23T19:23:11.710Z,2.15
2022-12-23T19:28:18.389Z,1.77
2022-12-23T19:33:22.044Z,2.17
2022-12-23T19:38:29.079Z,1.80
2022-12-23T19:43:41.301Z,1.67
2022-12-23T19:48:57.626Z,2.13
2022-12-23T19:54:07.360Z,1.98
2022-12-23T19:59:12.398Z,1.83
2022-12-23T20:04:16.610Z,1.50
2022-12-23T20:09:20.703Z,1.88
2022-12-23T20:18:33.324Z,2.20
2022-12-23T20:23:40.176Z,1.80
2022-12-23T20:28:45.398Z,2.00
2022-12-23T20:33:50.056Z,1.63
2022-12-23T20:38:55.190Z,2.10
2022-12-23T20:49:27.686Z,1.80
2022-12-23T20:54:33.747Z,1.73
2022-12-23T20:59:40.715Z,1.80
2022-12-23T21:04:44.828Z,1.80
2022-12-23T21:09:49.436Z,1.70
2022-12-23T21:14:52.439Z,1.80
2022-12-23T21:21:36.470Z,1.50
2022-12-23T21:26:38.691Z,6.53
2022-12-23T21:31:41.761Z,3.42
2022-12-23T21:36:44.068Z,2.38
2022-12-23T21:41:46.112Z,2.00
2022-12-23T21:46:51.055Z,1.75
2022-12-23T21:51:53.378Z,1.60
2022-12-23T21:56:55.394Z,1.70
2022-12-23T22:01:57.367Z,1.58
2022-12-23T22:06:59.496Z,1.60
2022-12-23T22:12:06.203Z,1.40
2022-12-23T22:17:13.217Z,1.50
2022-12-23T22:22:18.835Z,1.20
2022-12-23T22:27:24.387Z,1.42
2022-12-23T22:32:39.050Z,1.40
2022-12-23T22:37:48.220Z,1.40
2022-12-23T22:42:50.946Z,1.52
2022-12-23T22:48:02.686Z,1.20
2022-12-23T22:53:06.236Z,1.55
2022-12-23T22:58:12.850Z,1.70
2022-12-23T23:03:19.021Z,1.70
2022-12-23T23:08:27.427Z,1.45
2022-12-23T23:18:33.683Z,1.15
2022-12-23T23:23:44.782Z,1.50
2022-12-23T23:28:50.628Z,1.63
2022-12-23T23:33:52.498Z,1.30
2022-12-23T23:43:56.006Z,1.40
2022-12-23T23:48:58.132Z,1.20
2022-12-23T23:54:01.687Z,1.00
2022-12-23T23:59:03.658Z,1.27
